sensor_id;sensor_type;location;lat;lon;timestamp;P1;durP1;ratioP1;P2;durP2;ratioP2
10761;SDS011;5433;50.862;4.320;2023-09-19T00:01:42;7.05;;;2.08;;
10761;SDS011;5433;50.862;4.320;2023-09-19T00:07:46;7.40;;;2.10;;
10761;SDS011;5433;50.862;4.320;2023-09-19T00:10:12;10.73;;;2.10;;
10761;SDS011;5433;50.862;4.320;2023-09-19T00:12:42;8.48;;;2.33;;
10761;SDS011;5433;50.862;4.320;2023-09-19T00:15:08;9.80;;;1.95;;
10761;SDS011;5433;50.862;4.320;2023-09-19T00:17:36;8.35;;;2.20;;
10761;SDS011;5433;50.862;4.320;2023-09-19T00:20:03;7.53;;;2.05;;
10761;SDS011;5433;50.862;4.320;2023-09-19T00:25:39;9.77;;;2.03;;
10761;SDS011;5433;50.862;4.320;2023-09-19T00:28:07;9.85;;;2.30;;
10761;SDS011;5433;50.862;4.320;2023-09-19T00:30:34;7.97;;;1.90;;
10761;SDS011;5433;50.862;4.320;2023-09-19T00:33:02;7.32;;;2.33;;
10761;SDS011;5433;50.862;4.320;2023-09-19T00:35:31;8.50;;;2.20;;
10761;SDS011;5433;50.862;4.320;2023-09-19T00:37:58;8.18;;;2.25;;
10761;SDS011;5433;50.862;4.320;2023-09-19T00:40:24;8.68;;;1.80;;
10761;SDS011;5433;50.862;4.320;2023-09-19T00:42:51;7.28;;;2.25;;
10761;SDS011;5433;50.862;4.320;2023-09-19T00:45:18;11.35;;;2.20;;
10761;SDS011;5433;50.862;4.320;2023-09-19T00:47:46;7.20;;;2.28;;
10761;SDS011;5433;50.862;4.320;2023-09-19T00:50:14;12.20;;;2.20;;
10761;SDS011;5433;50.862;4.320;2023-09-19T00:52:42;10.65;;;2.35;;
10761;SDS011;5433;50.862;4.320;2023-09-19T00:55:09;6.10;;;1.80;;
10761;SDS011;5433;50.862;4.320;2023-09-19T00:57:36;7.90;;;2.10;;
10761;SDS011;5433;50.862;4.320;2023-09-19T01:00:03;9.32;;;2.42;;
10761;SDS011;5433;50.862;4.320;2023-09-19T01:02:36;10.07;;;2.33;;
10761;SDS011;5433;50.862;4.320;2023-09-19T01:05:02;9.35;;;2.22;;
10761;SDS011;5433;50.862;4.320;2023-09-19T01:07:32;8.50;;;2.63;;
10761;SDS011;5433;50.862;4.320;2023-09-19T01:10:00;7.35;;;1.90;;
10761;SDS011;5433;50.862;4.320;2023-09-19T01:12:33;9.43;;;2.08;;
10761;SDS011;5433;50.862;4.320;2023-09-19T01:15:03;9.13;;;2.10;;
10761;SDS011;5433;50.862;4.320;2023-09-19T01:17:34;7.28;;;2.00;;
10761;SDS011;5433;50.862;4.320;2023-09-19T01:22:50;9.93;;;2.10;;
10761;SDS011;5433;50.862;4.320;2023-09-19T01:28:34;7.53;;;1.95;;
10761;SDS011;5433;50.862;4.320;2023-09-19T01:31:09;9.90;;;2.40;;
10761;SDS011;5433;50.862;4.320;2023-09-19T01:36:41;9.30;;;2.53;;
10761;SDS011;5433;50.862;4.320;2023-09-19T01:39:11;9.80;;;2.10;;
10761;SDS011;5433;50.862;4.320;2023-09-19T01:44:25;11.52;;;2.47;;
10761;SDS011;5433;50.862;4.320;2023-09-19T01:46:58;8.40;;;2.00;;
10761;SDS011;5433;50.862;4.320;2023-09-19T01:52:31;8.18;;;2.33;;
10761;SDS011;5433;50.862;4.320;2023-09-19T01:55:02;10.15;;;2.10;;
10761;SDS011;5433;50.862;4.320;2023-09-19T02:00:18;10.18;;;2.60;;
10761;SDS011;5433;50.862;4.320;2023-09-19T02:05:51;9.70;;;2.23;;
10761;SDS011;5433;50.862;4.320;2023-09-19T02:08:21;10.82;;;2.33;;
10761;SDS011;5433;50.862;4.320;2023-09-19T02:10:52;8.88;;;2.33;;
10761;SDS011;5433;50.862;4.320;2023-09-19T02:13:28;9.05;;;2.30;;
10761;SDS011;5433;50.862;4.320;2023-09-19T02:15:57;8.93;;;2.42;;
10761;SDS011;5433;50.862;4.320;2023-09-19T02:18:23;10.68;;;2.40;;
10761;SDS011;5433;50.862;4.320;2023-09-19T02:20:50;9.50;;;2.22;;
10761;SDS011;5433;50.862;4.320;2023-09-19T02:23:20;5.95;;;2.10;;
10761;SDS011;5433;50.862;4.320;2023-09-19T02:25:56;8.82;;;2.25;;
10761;SDS011;5433;50.862;4.320;2023-09-19T02:28:25;10.75;;;2.30;;
10761;SDS011;5433;50.862;4.320;2023-09-19T02:30:55;9.15;;;2.20;;
10761;SDS011;5433;50.862;4.320;2023-09-19T02:33:22;9.95;;;2.70;;
10761;SDS011;5433;50.862;4.320;2023-09-19T02:35:49;7.93;;;1.98;;
10761;SDS011;5433;50.862;4.320;2023-09-19T02:38:15;9.07;;;2.38;;
10761;SDS011;5433;50.862;4.320;2023-09-19T02:40:47;7.95;;;2.25;;
10761;SDS011;5433;50.862;4.320;2023-09-19T02:43:13;10.30;;;2.55;;
10761;SDS011;5433;50.862;4.320;2023-09-19T02:45:39;8.15;;;2.30;;
10761;SDS011;5433;50.862;4.320;2023-09-19T02:48:05;9.00;;;2.10;;
10761;SDS011;5433;50.862;4.320;2023-09-19T02:50:32;8.15;;;2.10;;
10761;SDS011;5433;50.862;4.320;2023-09-19T02:52:59;10.55;;;2.22;;
10761;SDS011;5433;50.862;4.320;2023-09-19T02:55:25;9.07;;;2.10;;
10761;SDS011;5433;50.862;4.320;2023-09-19T02:57:53;8.38;;;2.20;;
10761;SDS011;5433;50.862;4.320;2023-09-19T03:00:22;6.25;;;2.17;;
10761;SDS011;5433;50.862;4.320;2023-09-19T03:02:55;14.07;;;2.30;;
10761;SDS011;5433;50.862;4.320;2023-09-19T03:05:22;9.20;;;2.10;;
10761;SDS011;5433;50.862;4.320;2023-09-19T03:07:51;8.82;;;2.00;;
10761;SDS011;5433;50.862;4.320;2023-09-19T03:10:20;8.73;;;2.20;;
10761;SDS011;5433;50.862;4.320;2023-09-19T03:12:47;7.22;;;1.80;;
10761;SDS011;5433;50.862;4.320;2023-09-19T03:15:13;9.35;;;2.25;;
10761;SDS011;5433;50.862;4.320;2023-09-19T03:17:44;8.25;;;2.25;;
10761;SDS011;5433;50.862;4.320;2023-09-19T03:20:17;7.93;;;2.10;;
10761;SDS011;5433;50.862;4.320;2023-09-19T03:22:47;9.60;;;2.45;;
10761;SDS011;5433;50.862;4.320;2023-09-19T03:25:13;8.30;;;2.13;;
10761;SDS011;5433;50.862;4.320;2023-09-19T03:27:40;6.60;;;2.30;;
10761;SDS011;5433;50.862;4.320;2023-09-19T03:30:08;9.15;;;2.30;;
10761;SDS011;5433;50.862;4.320;2023-09-19T03:32:47;9.02;;;2.17;;
10761;SDS011;5433;50.862;4.320;2023-09-19T03:35:15;11.00;;;2.42;;
10761;SDS011;5433;50.862;4.320;2023-09-19T03:37:43;8.75;;;2.00;;
10761;SDS011;5433;50.862;4.320;2023-09-19T03:40:12;9.10;;;2.30;;
10761;SDS011;5433;50.862;4.320;2023-09-19T03:42:44;10.07;;;2.60;;
10761;SDS011;5433;50.862;4.320;2023-09-19T03:45:14;7.65;;;2.42;;
10761;SDS011;5433;50.862;4.320;2023-09-19T03:47:44;9.20;;;2.40;;
10761;SDS011;5433;50.862;4.320;2023-09-19T03:50:13;9.60;;;2.60;;
10761;SDS011;5433;50.862;4.320;2023-09-19T03:52:45;8.10;;;2.30;;
10761;SDS011;5433;50.862;4.320;2023-09-19T03:55:12;8.65;;;2.20;;
10761;SDS011;5433;50.862;4.320;2023-09-19T03:57:38;10.55;;;2.50;;
10761;SDS011;5433;50.862;4.320;2023-09-19T04:00:08;8.70;;;2.42;;
10761;SDS011;5433;50.862;4.320;2023-09-19T04:02:37;9.57;;;2.63;;
10761;SDS011;5433;50.862;4.320;2023-09-19T04:05:04;8.73;;;2.25;;
10761;SDS011;5433;50.862;4.320;2023-09-19T04:07:30;12.23;;;2.90;;
10761;SDS011;5433;50.862;4.320;2023-09-19T04:09:57;10.43;;;2.58;;
10761;SDS011;5433;50.862;4.320;2023-09-19T04:12:23;8.40;;;2.60;;
10761;SDS011;5433;50.862;4.320;2023-09-19T04:14:50;11.50;;;2.50;;
10761;SDS011;5433;50.862;4.320;2023-09-19T04:17:19;10.77;;;2.40;;
10761;SDS011;5433;50.862;4.320;2023-09-19T04:19:48;8.18;;;2.15;;
10761;SDS011;5433;50.862;4.320;2023-09-19T04:25:18;10.63;;;2.20;;
10761;SDS011;5433;50.862;4.320;2023-09-19T04:27:44;8.50;;;2.40;;
10761;SDS011;5433;50.862;4.320;2023-09-19T04:30:11;9.48;;;2.10;;
10761;SDS011;5433;50.862;4.320;2023-09-19T04:32:38;12.00;;;2.22;;
10761;SDS011;5433;50.862;4.320;2023-09-19T04:35:08;10.10;;;2.47;;
10761;SDS011;5433;50.862;4.320;2023-09-19T04:40:39;13.20;;;2.17;;
10761;SDS011;5433;50.862;4.320;2023-09-19T04:46:17;7.53;;;2.20;;
10761;SDS011;5433;50.862;4.320;2023-09-19T04:52:09;5.82;;;1.95;;
10761;SDS011;5433;50.862;4.320;2023-09-19T04:54:42;8.38;;;2.13;;
10761;SDS011;5433;50.862;4.320;2023-09-19T04:57:29;7.47;;;2.17;;
10761;SDS011;5433;50.862;4.320;2023-09-19T05:03:38;10.20;;;2.40;;
10761;SDS011;5433;50.862;4.320;2023-09-19T05:06:04;10.63;;;2.30;;
10761;SDS011;5433;50.862;4.320;2023-09-19T05:08:30;9.18;;;2.15;;
10761;SDS011;5433;50.862;4.320;2023-09-19T05:10:56;6.15;;;1.90;;
10761;SDS011;5433;50.862;4.320;2023-09-19T05:13:22;7.30;;;2.10;;
10761;SDS011;5433;50.862;4.320;2023-09-19T05:15:51;9.90;;;2.08;;
10761;SDS011;5433;50.862;4.320;2023-09-19T05:18:17;8.07;;;2.30;;
10761;SDS011;5433;50.862;4.320;2023-09-19T05:20:45;11.18;;;2.45;;
10761;SDS011;5433;50.862;4.320;2023-09-19T05:23:12;8.73;;;2.22;;
10761;SDS011;5433;50.862;4.320;2023-09-19T05:25:39;12.18;;;2.55;;
10761;SDS011;5433;50.862;4.320;2023-09-19T05:30:32;9.40;;;2.30;;
10761;SDS011;5433;50.862;4.320;2023-09-19T05:33:12;8.93;;;2.72;;
10761;SDS011;5433;50.862;4.320;2023-09-19T05:35:38;11.15;;;2.30;;
10761;SDS011;5433;50.862;4.320;2023-09-19T05:38:07;9.25;;;2.47;;
10761;SDS011;5433;50.862;4.320;2023-09-19T05:43:45;11.40;;;2.75;;
10761;SDS011;5433;50.862;4.320;2023-09-19T05:46:13;12.38;;;2.55;;
10761;SDS011;5433;50.862;4.320;2023-09-19T05:51:48;14.10;;;2.40;;
10761;SDS011;5433;50.862;4.320;2023-09-19T05:54:29;10.98;;;2.45;;
10761;SDS011;5433;50.862;4.320;2023-09-19T05:56:58;9.45;;;2.35;;
10761;SDS011;5433;50.862;4.320;2023-09-19T05:59:28;10.45;;;2.40;;
10761;SDS011;5433;50.862;4.320;2023-09-19T06:02:16;10.55;;;2.38;;
10761;SDS011;5433;50.862;4.320;2023-09-19T06:07:54;7.82;;;2.20;;
10761;SDS011;5433;50.862;4.320;2023-09-19T06:10:31;9.68;;;2.20;;
10761;SDS011;5433;50.862;4.320;2023-09-19T06:12:59;10.05;;;2.55;;
10761;SDS011;5433;50.862;4.320;2023-09-19T06:15:29;7.53;;;2.30;;
10761;SDS011;5433;50.862;4.320;2023-09-19T06:17:57;8.73;;;2.13;;
10761;SDS011;5433;50.862;4.320;2023-09-19T06:20:24;6.75;;;2.03;;
10761;SDS011;5433;50.862;4.320;2023-09-19T06:22:52;10.27;;;2.53;;
10761;SDS011;5433;50.862;4.320;2023-09-19T06:25:18;13.07;;;2.67;;
10761;SDS011;5433;50.862;4.320;2023-09-19T06:27:48;9.68;;;2.05;;
10761;SDS011;5433;50.862;4.320;2023-09-19T06:30:17;9.35;;;2.30;;
10761;SDS011;5433;50.862;4.320;2023-09-19T06:32:43;12.38;;;2.08;;
10761;SDS011;5433;50.862;4.320;2023-09-19T06:35:10;8.93;;;2.00;;
10761;SDS011;5433;50.862;4.320;2023-09-19T06:37:37;10.80;;;2.30;;
10761;SDS011;5433;50.862;4.320;2023-09-19T06:40:07;8.38;;;2.25;;
10761;SDS011;5433;50.862;4.320;2023-09-19T06:42:38;5.75;;;1.98;;
10761;SDS011;5433;50.862;4.320;2023-09-19T06:45:04;10.48;;;2.20;;
10761;SDS011;5433;50.862;4.320;2023-09-19T06:47:31;9.82;;;2.30;;
10761;SDS011;5433;50.862;4.320;2023-09-19T06:50:00;9.07;;;2.30;;
10761;SDS011;5433;50.862;4.320;2023-09-19T06:52:27;9.75;;;2.20;;
10761;SDS011;5433;50.862;4.320;2023-09-19T06:54:53;9.40;;;1.90;;
10761;SDS011;5433;50.862;4.320;2023-09-19T06:57:19;8.13;;;2.42;;
10761;SDS011;5433;50.862;4.320;2023-09-19T06:59:45;11.57;;;2.20;;
10761;SDS011;5433;50.862;4.320;2023-09-19T07:02:11;8.35;;;2.20;;
10761;SDS011;5433;50.862;4.320;2023-09-19T07:04:38;6.95;;;1.95;;
10761;SDS011;5433;50.862;4.320;2023-09-19T07:07:05;6.10;;;1.73;;
10761;SDS011;5433;50.862;4.320;2023-09-19T07:09:34;13.82;;;2.40;;
10761;SDS011;5433;50.862;4.320;2023-09-19T07:12:00;6.57;;;2.00;;
10761;SDS011;5433;50.862;4.320;2023-09-19T07:14:26;9.60;;;2.17;;
10761;SDS011;5433;50.862;4.320;2023-09-19T07:16:52;9.48;;;2.30;;
10761;SDS011;5433;50.862;4.320;2023-09-19T07:19:19;7.65;;;2.50;;
10761;SDS011;5433;50.862;4.320;2023-09-19T07:21:45;10.38;;;2.22;;
10761;SDS011;5433;50.862;4.320;2023-09-19T07:24:12;7.22;;;1.85;;
10761;SDS011;5433;50.862;4.320;2023-09-19T07:26:38;10.05;;;2.30;;
10761;SDS011;5433;50.862;4.320;2023-09-19T07:29:05;9.40;;;2.20;;
10761;SDS011;5433;50.862;4.320;2023-09-19T07:31:31;9.27;;;2.10;;
10761;SDS011;5433;50.862;4.320;2023-09-19T07:37:02;9.70;;;1.83;;
10761;SDS011;5433;50.862;4.320;2023-09-19T07:39:28;10.73;;;2.30;;
10761;SDS011;5433;50.862;4.320;2023-09-19T07:41:54;9.25;;;2.30;;
10761;SDS011;5433;50.862;4.320;2023-09-19T07:44:21;12.13;;;2.13;;
10761;SDS011;5433;50.862;4.320;2023-09-19T07:46:47;9.13;;;2.10;;
10761;SDS011;5433;50.862;4.320;2023-09-19T07:49:16;8.20;;;2.38;;
10761;SDS011;5433;50.862;4.320;2023-09-19T07:51:42;11.13;;;2.33;;
10761;SDS011;5433;50.862;4.320;2023-09-19T07:54:11;10.23;;;2.40;;
10761;SDS011;5433;50.862;4.320;2023-09-19T07:56:38;6.85;;;2.20;;
10761;SDS011;5433;50.862;4.320;2023-09-19T07:59:03;11.20;;;2.10;;
10761;SDS011;5433;50.862;4.320;2023-09-19T08:01:29;7.93;;;2.35;;
10761;SDS011;5433;50.862;4.320;2023-09-19T08:03:56;8.68;;;2.22;;
10761;SDS011;5433;50.862;4.320;2023-09-19T08:06:22;9.68;;;2.60;;
10761;SDS011;5433;50.862;4.320;2023-09-19T08:08:50;9.98;;;2.80;;
10761;SDS011;5433;50.862;4.320;2023-09-19T08:11:18;9.77;;;2.33;;
10761;SDS011;5433;50.862;4.320;2023-09-19T08:13:46;9.52;;;1.90;;
10761;SDS011;5433;50.862;4.320;2023-09-19T08:16:14;8.57;;;2.50;;
10761;SDS011;5433;50.862;4.320;2023-09-19T08:18:41;9.15;;;2.20;;
10761;SDS011;5433;50.862;4.320;2023-09-19T08:21:08;6.47;;;2.15;;
10761;SDS011;5433;50.862;4.320;2023-09-19T08:23:39;9.38;;;2.15;;
10761;SDS011;5433;50.862;4.320;2023-09-19T08:26:05;12.50;;;2.40;;
10761;SDS011;5433;50.862;4.320;2023-09-19T08:28:36;7.88;;;2.00;;
10761;SDS011;5433;50.862;4.320;2023-09-19T08:31:05;11.15;;;2.33;;
10761;SDS011;5433;50.862;4.320;2023-09-19T08:33:32;8.43;;;2.38;;
10761;SDS011;5433;50.862;4.320;2023-09-19T08:35:58;8.73;;;2.00;;
10761;SDS011;5433;50.862;4.320;2023-09-19T08:38:24;9.05;;;2.08;;
10761;SDS011;5433;50.862;4.320;2023-09-19T08:40:56;10.40;;;2.22;;
10761;SDS011;5433;50.862;4.320;2023-09-19T08:43:23;6.47;;;2.10;;
10761;SDS011;5433;50.862;4.320;2023-09-19T08:45:49;9.88;;;2.35;;
10761;SDS011;5433;50.862;4.320;2023-09-19T08:48:28;11.52;;;2.15;;
10761;SDS011;5433;50.862;4.320;2023-09-19T08:51:07;6.95;;;2.15;;
10761;SDS011;5433;50.862;4.320;2023-09-19T08:53:54;7.63;;;2.30;;
10761;SDS011;5433;50.862;4.320;2023-09-19T08:56:22;10.35;;;2.03;;
10761;SDS011;5433;50.862;4.320;2023-09-19T08:58:55;9.30;;;2.15;;
10761;SDS011;5433;50.862;4.320;2023-09-19T09:01:23;6.65;;;1.77;;
10761;SDS011;5433;50.862;4.320;2023-09-19T09:03:51;9.55;;;2.15;;
10761;SDS011;5433;50.862;4.320;2023-09-19T09:06:17;7.95;;;2.10;;
10761;SDS011;5433;50.862;4.320;2023-09-19T09:08:43;8.45;;;2.00;;
10761;SDS011;5433;50.862;4.320;2023-09-19T09:11:10;7.30;;;2.00;;
10761;SDS011;5433;50.862;4.320;2023-09-19T09:13:38;7.32;;;1.90;;
10761;SDS011;5433;50.862;4.320;2023-09-19T09:16:06;8.15;;;2.00;;
10761;SDS011;5433;50.862;4.320;2023-09-19T09:18:32;4.55;;;1.80;;
10761;SDS011;5433;50.862;4.320;2023-09-19T09:20:59;8.05;;;1.98;;
10761;SDS011;5433;50.862;4.320;2023-09-19T09:23:26;7.82;;;1.80;;
10761;SDS011;5433;50.862;4.320;2023-09-19T09:25:55;8.10;;;1.90;;
10761;SDS011;5433;50.862;4.320;2023-09-19T09:28:25;7.55;;;2.20;;
10761;SDS011;5433;50.862;4.320;2023-09-19T09:30:53;8.80;;;1.90;;
10761;SDS011;5433;50.862;4.320;2023-09-19T09:33:19;6.47;;;1.95;;
10761;SDS011;5433;50.862;4.320;2023-09-19T09:35:53;7.72;;;1.85;;
10761;SDS011;5433;50.862;4.320;2023-09-19T09:38:22;7.95;;;1.95;;
10761;SDS011;5433;50.862;4.320;2023-09-19T09:40:53;7.68;;;1.88;;
10761;SDS011;5433;50.862;4.320;2023-09-19T09:48:45;6.53;;;1.50;;
10761;SDS011;5433;50.862;4.320;2023-09-19T09:51:31;5.30;;;1.77;;
10761;SDS011;5433;50.862;4.320;2023-09-19T09:54:14;5.55;;;1.80;;
10761;SDS011;5433;50.862;4.320;2023-09-19T10:04:53;8.85;;;1.73;;
10761;SDS011;5433;50.862;4.320;2023-09-19T10:07:39;6.68;;;1.83;;
10761;SDS011;5433;50.862;4.320;2023-09-19T10:13:11;8.65;;;1.90;;
10761;SDS011;5433;50.862;4.320;2023-09-19T10:15:38;5.28;;;1.35;;
10761;SDS011;5433;50.862;4.320;2023-09-19T10:18:14;6.88;;;1.83;;
10761;SDS011;5433;50.862;4.320;2023-09-19T10:20:43;4.20;;;1.10;;
10761;SDS011;5433;50.862;4.320;2023-09-19T10:23:11;4.95;;;1.40;;
10761;SDS011;5433;50.862;4.320;2023-09-19T10:25:43;4.85;;;1.40;;
10761;SDS011;5433;50.862;4.320;2023-09-19T10:28:13;3.45;;;1.20;;
10761;SDS011;5433;50.862;4.320;2023-09-19T10:30:43;5.40;;;1.40;;
10761;SDS011;5433;50.862;4.320;2023-09-19T10:33:15;6.05;;;1.65;;
10761;SDS011;5433;50.862;4.320;2023-09-19T10:35:45;5.35;;;1.70;;
10761;SDS011;5433;50.862;4.320;2023-09-19T10:38:11;4.32;;;1.40;;
10761;SDS011;5433;50.862;4.320;2023-09-19T10:40:38;5.43;;;1.20;;
10761;SDS011;5433;50.862;4.320;2023-09-19T10:43:08;4.82;;;1.70;;
10761;SDS011;5433;50.862;4.320;2023-09-19T10:45:36;5.38;;;1.48;;
10761;SDS011;5433;50.862;4.320;2023-09-19T10:48:04;4.80;;;1.40;;
10761;SDS011;5433;50.862;4.320;2023-09-19T10:50:33;4.13;;;1.23;;
10761;SDS011;5433;50.862;4.320;2023-09-19T10:53:02;5.82;;;1.33;;
10761;SDS011;5433;50.862;4.320;2023-09-19T10:55:30;4.57;;;1.48;;
10761;SDS011;5433;50.862;4.320;2023-09-19T10:57:58;4.65;;;1.48;;
10761;SDS011;5433;50.862;4.320;2023-09-19T11:00:26;4.97;;;1.20;;
10761;SDS011;5433;50.862;4.320;2023-09-19T11:05:40;4.15;;;1.35;;
10761;SDS011;5433;50.862;4.320;2023-09-19T11:08:10;3.40;;;1.50;;
10761;SDS011;5433;50.862;4.320;2023-09-19T11:10:44;4.30;;;1.35;;
10761;SDS011;5433;50.862;4.320;2023-09-19T11:13:23;3.10;;;1.10;;
10761;SDS011;5433;50.862;4.320;2023-09-19T11:26:40;5.53;;;1.20;;
10761;SDS011;5433;50.862;4.320;2023-09-19T11:29:29;2.95;;;1.30;;
10761;SDS011;5433;50.862;4.320;2023-09-19T11:31:56;5.28;;;1.08;;
10761;SDS011;5433;50.862;4.320;2023-09-19T11:34:37;2.53;;;1.02;;
10761;SDS011;5433;50.862;4.320;2023-09-19T11:39:38;3.30;;;1.35;;
10761;SDS011;5433;50.862;4.320;2023-09-19T11:44:51;4.05;;;0.93;;
10761;SDS011;5433;50.862;4.320;2023-09-19T11:47:21;4.82;;;1.25;;
10761;SDS011;5433;50.862;4.320;2023-09-19T11:49:49;4.20;;;1.10;;
10761;SDS011;5433;50.862;4.320;2023-09-19T11:52:21;4.22;;;1.05;;
10761;SDS011;5433;50.862;4.320;2023-09-19T11:57:36;3.75;;;1.20;;
10761;SDS011;5433;50.862;4.320;2023-09-19T12:00:03;3.03;;;1.23;;
10761;SDS011;5433;50.862;4.320;2023-09-19T12:02:39;3.80;;;1.55;;
10761;SDS011;5433;50.862;4.320;2023-09-19T12:05:07;4.43;;;1.30;;
10761;SDS011;5433;50.862;4.320;2023-09-19T12:07:42;2.90;;;1.00;;
10761;SDS011;5433;50.862;4.320;2023-09-19T12:10:11;3.40;;;1.10;;
10761;SDS011;5433;50.862;4.320;2023-09-19T12:12:48;3.13;;;1.25;;
10761;SDS011;5433;50.862;4.320;2023-09-19T12:15:22;2.97;;;1.02;;
10761;SDS011;5433;50.862;4.320;2023-09-19T12:17:49;4.43;;;1.27;;
10761;SDS011;5433;50.862;4.320;2023-09-19T12:20:15;2.42;;;0.90;;
10761;SDS011;5433;50.862;4.320;2023-09-19T12:22:42;3.78;;;1.35;;
10761;SDS011;5433;50.862;4.320;2023-09-19T12:25:09;3.95;;;1.00;;
10761;SDS011;5433;50.862;4.320;2023-09-19T12:27:48;2.90;;;1.30;;
10761;SDS011;5433;50.862;4.320;2023-09-19T12:30:17;4.40;;;1.15;;
10761;SDS011;5433;50.862;4.320;2023-09-19T12:32:45;3.83;;;1.10;;
10761;SDS011;5433;50.862;4.320;2023-09-19T12:35:29;3.45;;;1.08;;
10761;SDS011;5433;50.862;4.320;2023-09-19T12:37:56;2.55;;;1.20;;
10761;SDS011;5433;50.862;4.320;2023-09-19T12:40:22;5.25;;;1.20;;
10761;SDS011;5433;50.862;4.320;2023-09-19T12:42:52;3.72;;;1.30;;
10761;SDS011;5433;50.862;4.320;2023-09-19T12:45:20;6.45;;;1.50;;
10761;SDS011;5433;50.862;4.320;2023-09-19T12:50:33;3.92;;;1.23;;
10761;SDS011;5433;50.862;4.320;2023-09-19T12:52:59;2.88;;;1.15;;
10761;SDS011;5433;50.862;4.320;2023-09-19T12:55:28;3.17;;;1.23;;
10761;SDS011;5433;50.862;4.320;2023-09-19T13:00:36;2.92;;;1.13;;
10761;SDS011;5433;50.862;4.320;2023-09-19T13:03:24;3.88;;;1.25;;
10761;SDS011;5433;50.862;4.320;2023-09-19T13:08:21;2.80;;;1.17;;
10761;SDS011;5433;50.862;4.320;2023-09-19T13:13:44;3.80;;;0.98;;
10761;SDS011;5433;50.862;4.320;2023-09-19T13:16:13;3.38;;;1.20;;
10761;SDS011;5433;50.862;4.320;2023-09-19T13:18:47;4.05;;;1.30;;
10761;SDS011;5433;50.862;4.320;2023-09-19T13:21:16;3.25;;;1.20;;
10761;SDS011;5433;50.862;4.320;2023-09-19T13:23:52;4.22;;;1.30;;
10761;SDS011;5433;50.862;4.320;2023-09-19T13:26:19;2.55;;;1.02;;
10761;SDS011;5433;50.862;4.320;2023-09-19T13:28:45;3.65;;;1.23;;
10761;SDS011;5433;50.862;4.320;2023-09-19T13:31:14;6.05;;;1.33;;
10761;SDS011;5433;50.862;4.320;2023-09-19T13:33:47;3.65;;;1.20;;
10761;SDS011;5433;50.862;4.320;2023-09-19T13:36:13;3.47;;;1.00;;
10761;SDS011;5433;50.862;4.320;2023-09-19T13:38:40;3.45;;;1.20;;
10761;SDS011;5433;50.862;4.320;2023-09-19T13:41:09;1.58;;;1.00;;
10761;SDS011;5433;50.862;4.320;2023-09-19T13:43:36;4.63;;;0.98;;
10761;SDS011;5433;50.862;4.320;2023-09-19T13:46:02;4.13;;;1.38;;
10761;SDS011;5433;50.862;4.320;2023-09-19T13:51:32;3.88;;;1.27;;
10761;SDS011;5433;50.862;4.320;2023-09-19T13:53:58;2.42;;;1.13;;
10761;SDS011;5433;50.862;4.320;2023-09-19T13:56:27;3.30;;;1.15;;
10761;SDS011;5433;50.862;4.320;2023-09-19T13:58:53;3.17;;;1.17;;
10761;SDS011;5433;50.862;4.320;2023-09-19T14:01:20;3.28;;;1.55;;
10761;SDS011;5433;50.862;4.320;2023-09-19T14:03:46;2.75;;;1.50;;
10761;SDS011;5433;50.862;4.320;2023-09-19T14:06:14;4.18;;;1.30;;
10761;SDS011;5433;50.862;4.320;2023-09-19T14:08:41;5.10;;;1.45;;
10761;SDS011;5433;50.862;4.320;2023-09-19T14:11:07;3.10;;;1.40;;
10761;SDS011;5433;50.862;4.320;2023-09-19T14:13:33;3.92;;;1.30;;
10761;SDS011;5433;50.862;4.320;2023-09-19T14:16:03;3.53;;;1.65;;
10761;SDS011;5433;50.862;4.320;2023-09-19T14:18:30;5.28;;;1.50;;
10761;SDS011;5433;50.862;4.320;2023-09-19T14:20:56;3.90;;;1.58;;
10761;SDS011;5433;50.862;4.320;2023-09-19T14:23:22;5.05;;;1.60;;
10761;SDS011;5433;50.862;4.320;2023-09-19T14:25:50;3.53;;;1.60;;
10761;SDS011;5433;50.862;4.320;2023-09-19T14:28:18;2.95;;;1.20;;
10761;SDS011;5433;50.862;4.320;2023-09-19T14:30:44;2.50;;;1.40;;
10761;SDS011;5433;50.862;4.320;2023-09-19T14:33:11;2.78;;;1.27;;
10761;SDS011;5433;50.862;4.320;2023-09-19T14:35:37;4.10;;;1.50;;
10761;SDS011;5433;50.862;4.320;2023-09-19T14:38:03;3.65;;;1.42;;
10761;SDS011;5433;50.862;4.320;2023-09-19T14:40:29;4.65;;;1.30;;
10761;SDS011;5433;50.862;4.320;2023-09-19T14:42:56;2.88;;;1.30;;
10761;SDS011;5433;50.862;4.320;2023-09-19T14:45:22;4.07;;;1.52;;
10761;SDS011;5433;50.862;4.320;2023-09-19T14:47:48;3.45;;;1.50;;
10761;SDS011;5433;50.862;4.320;2023-09-19T14:50:18;4.25;;;1.40;;
10761;SDS011;5433;50.862;4.320;2023-09-19T14:52:44;4.05;;;1.50;;
10761;SDS011;5433;50.862;4.320;2023-09-19T14:55:10;4.75;;;1.63;;
10761;SDS011;5433;50.862;4.320;2023-09-19T14:57:39;2.85;;;1.40;;
10761;SDS011;5433;50.862;4.320;2023-09-19T15:00:07;3.15;;;1.40;;
10761;SDS011;5433;50.862;4.320;2023-09-19T15:02:37;4.88;;;1.58;;
10761;SDS011;5433;50.862;4.320;2023-09-19T15:05:05;3.17;;;1.50;;
10761;SDS011;5433;50.862;4.320;2023-09-19T15:07:33;3.90;;;1.30;;
10761;SDS011;5433;50.862;4.320;2023-09-19T15:10:01;4.00;;;1.70;;
10761;SDS011;5433;50.862;4.320;2023-09-19T15:15:31;3.88;;;1.40;;
10761;SDS011;5433;50.862;4.320;2023-09-19T15:17:57;6.10;;;1.50;;
10761;SDS011;5433;50.862;4.320;2023-09-19T15:20:25;4.20;;;1.58;;
10761;SDS011;5433;50.862;4.320;2023-09-19T15:22:51;5.03;;;1.73;;
10761;SDS011;5433;50.862;4.320;2023-09-19T15:25:17;5.50;;;1.70;;
10761;SDS011;5433;50.862;4.320;2023-09-19T15:27:43;6.07;;;1.80;;
10761;SDS011;5433;50.862;4.320;2023-09-19T15:30:10;5.97;;;1.70;;
10761;SDS011;5433;50.862;4.320;2023-09-19T15:32:36;4.43;;;1.50;;
10761;SDS011;5433;50.862;4.320;2023-09-19T15:35:02;5.78;;;1.73;;
10761;SDS011;5433;50.862;4.320;2023-09-19T15:37:28;4.78;;;1.52;;
10761;SDS011;5433;50.862;4.320;2023-09-19T15:39:54;5.07;;;1.50;;
10761;SDS011;5433;50.862;4.320;2023-09-19T15:42:20;4.45;;;1.80;;
10761;SDS011;5433;50.862;4.320;2023-09-19T15:44:46;2.45;;;1.50;;
10761;SDS011;5433;50.862;4.320;2023-09-19T15:47:14;5.20;;;1.55;;
10761;SDS011;5433;50.862;4.320;2023-09-19T15:49:40;5.13;;;1.40;;
10761;SDS011;5433;50.862;4.320;2023-09-19T15:55:23;2.30;;;1.30;;
10761;SDS011;5433;50.862;4.320;2023-09-19T15:57:51;3.97;;;1.17;;
10761;SDS011;5433;50.862;4.320;2023-09-19T16:00:18;6.40;;;1.70;;
10761;SDS011;5433;50.862;4.320;2023-09-19T16:02:45;4.22;;;1.40;;
10761;SDS011;5433;50.862;4.320;2023-09-19T16:05:12;3.67;;;1.63;;
10761;SDS011;5433;50.862;4.320;2023-09-19T16:07:38;3.80;;;1.30;;
10761;SDS011;5433;50.862;4.320;2023-09-19T16:10:04;3.33;;;1.50;;
10761;SDS011;5433;50.862;4.320;2023-09-19T16:12:30;4.90;;;1.50;;
10761;SDS011;5433;50.862;4.320;2023-09-19T16:14:57;3.90;;;1.70;;
10761;SDS011;5433;50.862;4.320;2023-09-19T16:17:23;4.57;;;1.45;;
10761;SDS011;5433;50.862;4.320;2023-09-19T16:19:49;4.85;;;1.52;;
10761;SDS011;5433;50.862;4.320;2023-09-19T16:22:15;3.63;;;1.30;;
10761;SDS011;5433;50.862;4.320;2023-09-19T16:24:41;5.82;;;1.80;;
10761;SDS011;5433;50.862;4.320;2023-09-19T16:27:07;4.35;;;1.45;;
10761;SDS011;5433;50.862;4.320;2023-09-19T16:29:34;2.83;;;1.40;;
10761;SDS011;5433;50.862;4.320;2023-09-19T16:32:00;3.00;;;1.38;;
10761;SDS011;5433;50.862;4.320;2023-09-19T16:34:26;3.97;;;1.85;;
10761;SDS011;5433;50.862;4.320;2023-09-19T16:36:52;4.88;;;1.73;;
10761;SDS011;5433;50.862;4.320;2023-09-19T16:39:18;5.05;;;1.52;;
10761;SDS011;5433;50.862;4.320;2023-09-19T16:41:44;4.25;;;1.60;;
10761;SDS011;5433;50.862;4.320;2023-09-19T16:44:10;4.13;;;1.70;;
10761;SDS011;5433;50.862;4.320;2023-09-19T16:46:36;2.75;;;1.20;;
10761;SDS011;5433;50.862;4.320;2023-09-19T16:49:02;4.75;;;1.48;;
10761;SDS011;5433;50.862;4.320;2023-09-19T16:51:29;3.53;;;1.55;;
10761;SDS011;5433;50.862;4.320;2023-09-19T16:53:55;3.35;;;1.30;;
10761;SDS011;5433;50.862;4.320;2023-09-19T16:56:22;3.83;;;1.58;;
10761;SDS011;5433;50.862;4.320;2023-09-19T16:58:48;4.93;;;1.58;;
10761;SDS011;5433;50.862;4.320;2023-09-19T17:01:16;4.00;;;1.55;;
10761;SDS011;5433;50.862;4.320;2023-09-19T17:03:43;7.70;;;1.83;;
10761;SDS011;5433;50.862;4.320;2023-09-19T17:06:10;4.65;;;1.85;;